Página principal
METAR-TAF:

METAR-TAF

Aeroportos :

Yakutsk, Rússia

latitude: 62-01N, longitude: 129-43E, altura: 103 m

Observação actual do tempo

O boletim foi feito há 28 minutos, às 14:00 UTC
Vento 6 kt de este
Temperatura 4°C
Humidade 70%
Pressão 1007 hPa
Visibilidade 10 km ou mais
sem nuvens abaixo de 1500 metros e sem cumulonimbus

METAR: UEEE 231400Z 08003MPS CAVOK 04/M01 Q1007 R23L/09//60 NOSIG RMK QFE746

Hora: 23:28 (14:28 UTC)

Previsão

O boletim foi feito há 3 horas e 28 minutos, às 11:00 UTC
Previsão válida de 23 às 12 UTC a 24 às 18 UTC
Vento 6 kt de este com rajadas de 16 kt
Visibilidade 10 km ou mais
Nuvens dispersasa uma altura de 1000 ft
Nuvens fragmentadasa uma altura de 2000 ft, Cumulonimbus.
Encobertoa uma altura de 7000 ft
Temporariamente
de 23 às 14 UTC a 24 às 03 UTC
Visibilidade: 0300 m
a uma altura de 200 ft
aguaceiros fracos de chuva, nevoeiro

TAF: UEEE 231100Z 2312/2418 10003G08MPS 9999 SCT010 BKN020CB OVC070 TEMPO 2314/2403 0300 -SHRA FG VV002

Observações e previsões do tempo de mais de 4000 aeroportos (mensagens METAR e TAF).

As estações disponíveis são os pontos amarelos e vermelhos sobre o mapa.

Mova o rato sobre o mapa para ver o nome da estação.

Depois clique no ponto para visualizar as observações e previsões meteorológicas.

Para alterar o mapa : clique nos botões verdes com uma cruz preta para aumentar o zoom; no botão verde com uma pitada de zoom; ou nas setas verdes para mapas adjacentes.


METAR-TAF: